Rusich-7 — UBUI — position and weather

sailwx.info

Track history (hours):
 
Tides and Currents Weather Stations Pressure Air Temp Water Temp Dewpoint Dewpoint Depression Visibility Wind Speed Wind Dir Waves Ship Positions

Rusich-7

Last reported at 2018-Feb-22 18:59 UTC. Time now 2018-Feb-22 19:20 UTC.
Position N 45°44' E 013°38'.

Length 128 m; draft 3.7 m.

Type: Cargo ship. MMSI: 273310950.

Date/timePositionNaut miles runAvg speedWind from/ knotsBaromVisibWave heightAir tempDewpointWater temp
2018-Feb-22 18:59N 45°44' E 013°38'0 0.0
2018-Feb-22 18:29N 45°44' E 013°38'0 0.0
2018-Feb-22 17:59N 45°44' E 013°38'0 0.0
2018-Feb-22 17:29N 45°44' E 013°38'0 0.0
2018-Feb-22 16:58N 45°44' E 013°38'0 0.0
2018-Feb-22 16:28N 45°44' E 013°38'0 0.0
2018-Feb-22 15:55N 45°44' E 013°38'0 0.0
2018-Feb-22 15:28N 45°44' E 013°38'0 0.0
2018-Feb-22 14:58N 45°44' E 013°38'0 0.0
2018-Feb-22 14:30N 45°44' E 013°38'0 0.0
2018-Feb-22 14:00N 45°44' E 013°38'0 0.0
2018-Feb-22 13:30N 45°44' E 013°38'0 0.0
2018-Feb-22 12:58N 45°44' E 013°38'0 0.0
2018-Feb-22 12:28N 45°44' E 013°38'0 0.0
2018-Feb-22 11:55N 45°44' E 013°38'0 0.0
2018-Feb-22 11:28N 45°44' E 013°38'0 0.0
2018-Feb-22 10:58N 45°44' E 013°38'0 0.0
2018-Feb-22 10:29N 45°44' E 013°38'0 0.0
2018-Feb-22 10:00N 45°44' E 013°38'0 0.0
2018-Feb-22 09:30N 45°44' E 013°38'0 0.0
2018-Feb-22 09:00N 45°44' E 013°38'0 0.0
2018-Feb-22 08:30N 45°44' E 013°38'0 0.0
2018-Feb-22 07:48N 45°44' E 013°38'0 0.0
2018-Feb-22 07:29N 45°44' E 013°38'0 0.0
2018-Feb-22 07:00N 45°44' E 013°38'0 0.0
2018-Feb-22 06:30N 45°44' E 013°38'0 0.0
2018-Feb-22 06:00N 45°44' E 013°38'0 0.0
2018-Feb-22 05:30N 45°44' E 013°38'0 0.0
2018-Feb-22 04:59N 45°44' E 013°38'0 0.0
2018-Feb-22 04:30N 45°44' E 013°38'0 0.1
2018-Feb-22 04:00N 45°44' E 013°38'0 0.0
2018-Feb-22 03:27N 45°44' E 013°38'0 0.1
2018-Feb-22 03:00N 45°44' E 013°38'2 3.7
2018-Feb-22 02:30N 45°42' E 013°38'4 6.9
2018-Feb-22 02:00N 45°39' E 013°37'3 6.8
2018-Feb-22 01:30N 45°36' E 013°34'3 6.7
2018-Feb-22 01:00N 45°34' E 013°31'3 6.5
2018-Feb-22 00:30N 45°32' E 013°27'3 5.8
2018-Feb-22 00:00N 45°30' E 013°23'3 5.8
2018-Feb-21 23:30N 45°28' E 013°20'3 5.8
2018-Feb-21 23:00N 45°26' E 013°17'3 6.7
2018-Feb-21 22:30N 45°24' E 013°14'3 6.8
2018-Feb-21 22:00N 45°21' E 013°13'4 8.6
2018-Feb-21 21:30N 45°16' E 013°14'5 9.1
2018-Feb-21 21:00N 45°12' E 013°16'5 9.1
2018-Feb-21 20:30N 45°08' E 013°19'5 9.3
2018-Feb-21 20:00N 45°04' E 013°23'5 9.3
2018-Feb-21 19:30N 45°01' E 013°27'5 9.3
2018-Feb-21 19:00N 44°57' E 013°31'5 9.2
2018-Feb-21 18:30N 44°54' E 013°36'  
2018-Feb-18 17:11N 45°19' E 014°22'0 0.0
2018-Feb-18 14:45N 45°19' E 014°22'0 1.7
2018-Feb-18 14:30N 45°18' E 014°22'3 6.9
2018-Feb-18 14:00N 45°15' E 014°21'4 7.1
2018-Feb-18 13:22N 45°11' E 014°18'2 6.7
2018-Feb-18 13:00N 45°09' E 014°16'12 7.1
2018-Feb-18 11:20N 44°57' E 014°13'2 6.3
2018-Feb-18 10:59N 44°55' E 014°12'4 6.6
2018-Feb-18 10:18N 44°51' E 014°10'2 6.6
2018-Feb-18 09:58N 44°49' E 014°10'3 6.6
2018-Feb-18 09:30N 44°46' E 014°08'3 6.1
2018-Feb-18 09:00N 44°43' E 014°08'3 6.2
2018-Feb-18 08:30N 44°40' E 014°07'4 7.2
2018-Feb-18 08:00N 44°36' E 014°07'4 8.4
2018-Feb-18 07:30N 44°32' E 014°08'4 8.5
2018-Feb-18 07:00N 44°29' E 014°12'  
Track history (hours):
 
Tides and Currents Weather Stations Pressure Air Temp Water Temp Dewpoint Dewpoint Depression Visibility Wind Speed Wind Dir Waves Ship Positions

Rusich-7

Last reported at 2018-Feb-22 18:59 UTC. Time now 2018-Feb-22 19:20 UTC.
Position N 45°44' E 013°38'.

Length 128 m; draft 3.7 m.

Type: Cargo ship. MMSI: 273310950.

Date/timePositionNaut miles runAvg speedWind from/ knotsBaromVisibWave heightAir tempDewpointWater temp
2018-Feb-22 18:59N 45°44' E 013°38'0 0.0
2018-Feb-22 18:29N 45°44' E 013°38'0 0.0
2018-Feb-22 17:59N 45°44' E 013°38'0 0.0
2018-Feb-22 17:29N 45°44' E 013°38'0 0.0
2018-Feb-22 16:58N 45°44' E 013°38'0 0.0
2018-Feb-22 16:28N 45°44' E 013°38'0 0.0
2018-Feb-22 15:55N 45°44' E 013°38'0 0.0
2018-Feb-22 15:28N 45°44' E 013°38'0 0.0
2018-Feb-22 14:58N 45°44' E 013°38'0 0.0
2018-Feb-22 14:30N 45°44' E 013°38'0 0.0
2018-Feb-22 14:00N 45°44' E 013°38'0 0.0
2018-Feb-22 13:30N 45°44' E 013°38'0 0.0
2018-Feb-22 12:58N 45°44' E 013°38'0 0.0
2018-Feb-22 12:28N 45°44' E 013°38'0 0.0
2018-Feb-22 11:55N 45°44' E 013°38'0 0.0
2018-Feb-22 11:28N 45°44' E 013°38'0 0.0
2018-Feb-22 10:58N 45°44' E 013°38'0 0.0
2018-Feb-22 10:29N 45°44' E 013°38'0 0.0
2018-Feb-22 10:00N 45°44' E 013°38'0 0.0
2018-Feb-22 09:30N 45°44' E 013°38'0 0.0
2018-Feb-22 09:00N 45°44' E 013°38'0 0.0
2018-Feb-22 08:30N 45°44' E 013°38'0 0.0
2018-Feb-22 07:48N 45°44' E 013°38'0 0.0
2018-Feb-22 07:29N 45°44' E 013°38'0 0.0
2018-Feb-22 07:00N 45°44' E 013°38'0 0.0
2018-Feb-22 06:30N 45°44' E 013°38'0 0.0
2018-Feb-22 06:00N 45°44' E 013°38'0 0.0
2018-Feb-22 05:30N 45°44' E 013°38'0 0.0
2018-Feb-22 04:59N 45°44' E 013°38'0 0.0
2018-Feb-22 04:30N 45°44' E 013°38'0 0.1
2018-Feb-22 04:00N 45°44' E 013°38'0 0.0
2018-Feb-22 03:27N 45°44' E 013°38'0 0.1
2018-Feb-22 03:00N 45°44' E 013°38'2 3.7
2018-Feb-22 02:30N 45°42' E 013°38'4 6.9
2018-Feb-22 02:00N 45°39' E 013°37'3 6.8
2018-Feb-22 01:30N 45°36' E 013°34'3 6.7
2018-Feb-22 01:00N 45°34' E 013°31'3 6.5
2018-Feb-22 00:30N 45°32' E 013°27'3 5.8
2018-Feb-22 00:00N 45°30' E 013°23'3 5.8
2018-Feb-21 23:30N 45°28' E 013°20'3 5.8
2018-Feb-21 23:00N 45°26' E 013°17'3 6.7
2018-Feb-21 22:30N 45°24' E 013°14'3 6.8
2018-Feb-21 22:00N 45°21' E 013°13'4 8.6
2018-Feb-21 21:30N 45°16' E 013°14'5 9.1
2018-Feb-21 21:00N 45°12' E 013°16'5 9.1
2018-Feb-21 20:30N 45°08' E 013°19'5 9.3
2018-Feb-21 20:00N 45°04' E 013°23'5 9.3
2018-Feb-21 19:30N 45°01' E 013°27'5 9.3
2018-Feb-21 19:00N 44°57' E 013°31'5 9.2
2018-Feb-21 18:30N 44°54' E 013°36'  
2018-Feb-18 17:11N 45°19' E 014°22'0 0.0
2018-Feb-18 14:45N 45°19' E 014°22'0 1.7
2018-Feb-18 14:30N 45°18' E 014°22'3 6.9
2018-Feb-18 14:00N 45°15' E 014°21'4 7.1
2018-Feb-18 13:22N 45°11' E 014°18'2 6.7
2018-Feb-18 13:00N 45°09' E 014°16'12 7.1
2018-Feb-18 11:20N 44°57' E 014°13'2 6.3
2018-Feb-18 10:59N 44°55' E 014°12'4 6.6
2018-Feb-18 10:18N 44°51' E 014°10'2 6.6
2018-Feb-18 09:58N 44°49' E 014°10'3 6.6
2018-Feb-18 09:30N 44°46' E 014°08'3 6.1
2018-Feb-18 09:00N 44°43' E 014°08'3 6.2
2018-Feb-18 08:30N 44°40' E 014°07'4 7.2
2018-Feb-18 08:00N 44°36' E 014°07'4 8.4
2018-Feb-18 07:30N 44°32' E 014°08'4 8.5
2018-Feb-18 07:00N 44°29' E 014°12'  

Dump ship's entire track history